sensor_id;sensor_type;location;lat;lon;timestamp;temperature;humidity
39103;DHT22;24847;48.218;16.414;2023-10-09T00:03:42;11.70;99.90
39103;DHT22;24847;48.218;16.414;2023-10-09T00:08:52;11.70;99.90
39103;DHT22;24847;48.218;16.414;2023-10-09T00:13:55;11.80;99.90
39103;DHT22;24847;48.218;16.414;2023-10-09T00:19:06;11.70;99.90
39103;DHT22;24847;48.218;16.414;2023-10-09T00:24:19;11.60;99.90
39103;DHT22;24847;48.218;16.414;2023-10-09T00:29:24;11.60;99.90
39103;DHT22;24847;48.218;16.414;2023-10-09T00:34:35;11.90;99.90
39103;DHT22;24847;48.218;16.414;2023-10-09T00:39:42;11.60;99.90
39103;DHT22;24847;48.218;16.414;2023-10-09T00:44:45;11.50;99.90
39103;DHT22;24847;48.218;16.414;2023-10-09T00:49:50;11.50;99.90
39103;DHT22;24847;48.218;16.414;2023-10-09T00:55:05;11.50;99.90
39103;DHT22;24847;48.218;16.414;2023-10-09T01:00:22;11.50;99.90
39103;DHT22;24847;48.218;16.414;2023-10-09T01:05:46;11.20;99.90
39103;DHT22;24847;48.218;16.414;2023-10-09T01:11:02;11.10;99.90
39103;DHT22;24847;48.218;16.414;2023-10-09T01:16:12;11.30;99.90
39103;DHT22;24847;48.218;16.414;2023-10-09T01:21:17;11.30;99.90
39103;DHT22;24847;48.218;16.414;2023-10-09T01:26:30;11.30;99.90
39103;DHT22;24847;48.218;16.414;2023-10-09T01:31:40;11.20;99.90
39103;DHT22;24847;48.218;16.414;2023-10-09T01:36:53;11.30;99.90
39103;DHT22;24847;48.218;16.414;2023-10-09T01:41:57;11.10;99.90
39103;DHT22;24847;48.218;16.414;2023-10-09T01:47:01;11.20;99.90
39103;DHT22;24847;48.218;16.414;2023-10-09T01:52:15;11.30;99.90
39103;DHT22;24847;48.218;16.414;2023-10-09T01:57:22;11.30;99.90
39103;DHT22;24847;48.218;16.414;2023-10-09T02:02:27;11.30;99.90
39103;DHT22;24847;48.218;16.414;2023-10-09T02:07:34;11.40;99.90
39103;DHT22;24847;48.218;16.414;2023-10-09T02:12:49;11.70;99.90
39103;DHT22;24847;48.218;16.414;2023-10-09T02:17:54;12.10;99.90
39103;DHT22;24847;48.218;16.414;2023-10-09T02:23:01;12.10;99.90
39103;DHT22;24847;48.218;16.414;2023-10-09T02:28:16;12.30;99.90
39103;DHT22;24847;48.218;16.414;2023-10-09T02:33:19;12.20;99.90
39103;DHT22;24847;48.218;16.414;2023-10-09T02:38:30;12.20;99.90
39103;DHT22;24847;48.218;16.414;2023-10-09T02:43:39;12.20;99.90
39103;DHT22;24847;48.218;16.414;2023-10-09T02:48:45;12.20;99.90
39103;DHT22;24847;48.218;16.414;2023-10-09T02:53:51;12.30;99.90
39103;DHT22;24847;48.218;16.414;2023-10-09T02:58:55;12.20;99.90
39103;DHT22;24847;48.218;16.414;2023-10-09T03:04:07;12.10;99.90
39103;DHT22;24847;48.218;16.414;2023-10-09T03:09:11;12.20;99.90
39103;DHT22;24847;48.218;16.414;2023-10-09T03:14:19;12.30;99.90
39103;DHT22;24847;48.218;16.414;2023-10-09T03:19:28;12.10;99.90
39103;DHT22;24847;48.218;16.414;2023-10-09T03:24:36;12.20;99.90
39103;DHT22;24847;48.218;16.414;2023-10-09T03:29:40;12.20;99.90
39103;DHT22;24847;48.218;16.414;2023-10-09T03:34:52;12.30;99.90
39103;DHT22;24847;48.218;16.414;2023-10-09T03:40:01;12.20;99.90
39103;DHT22;24847;48.218;16.414;2023-10-09T03:45:07;12.20;99.90
39103;DHT22;24847;48.218;16.414;2023-10-09T03:50:21;12.20;99.90
39103;DHT22;24847;48.218;16.414;2023-10-09T03:55:27;12.10;99.90
39103;DHT22;24847;48.218;16.414;2023-10-09T04:00:36;12.10;99.90
39103;DHT22;24847;48.218;16.414;2023-10-09T04:05:45;12.10;99.90
39103;DHT22;24847;48.218;16.414;2023-10-09T04:10:50;12.10;99.90
39103;DHT22;24847;48.218;16.414;2023-10-09T04:15:54;12.00;99.90
39103;DHT22;24847;48.218;16.414;2023-10-09T04:20:57;12.00;99.90
39103;DHT22;24847;48.218;16.414;2023-10-09T04:26:21;12.00;99.90
39103;DHT22;24847;48.218;16.414;2023-10-09T04:31:27;11.90;99.90
39103;DHT22;24847;48.218;16.414;2023-10-09T04:36:35;12.10;99.90
39103;DHT22;24847;48.218;16.414;2023-10-09T04:41:50;12.10;99.90
39103;DHT22;24847;48.218;16.414;2023-10-09T04:47:16;11.80;99.90
39103;DHT22;24847;48.218;16.414;2023-10-09T04:52:26;11.70;99.90
39103;DHT22;24847;48.218;16.414;2023-10-09T04:57:43;11.80;99.90
39103;DHT22;24847;48.218;16.414;2023-10-09T05:02:50;11.80;99.90
39103;DHT22;24847;48.218;16.414;2023-10-09T05:07:55;11.80;99.90
39103;DHT22;24847;48.218;16.414;2023-10-09T05:12:57;12.00;99.90
39103;DHT22;24847;48.218;16.414;2023-10-09T05:18:02;11.80;99.90
39103;DHT22;24847;48.218;16.414;2023-10-09T05:23:10;11.90;99.90
39103;DHT22;24847;48.218;16.414;2023-10-09T05:28:31;11.80;99.90
39103;DHT22;24847;48.218;16.414;2023-10-09T05:33:50;11.80;99.90
39103;DHT22;24847;48.218;16.414;2023-10-09T05:38:59;11.70;99.90
39103;DHT22;24847;48.218;16.414;2023-10-09T05:44:22;11.70;99.90
39103;DHT22;24847;48.218;16.414;2023-10-09T05:49:46;11.80;99.90
39103;DHT22;24847;48.218;16.414;2023-10-09T05:54:59;11.60;99.90
39103;DHT22;24847;48.218;16.414;2023-10-09T06:00:34;11.80;99.90
39103;DHT22;24847;48.218;16.414;2023-10-09T06:06:02;12.00;99.90
39103;DHT22;24847;48.218;16.414;2023-10-09T06:11:05;12.00;99.90
39103;DHT22;24847;48.218;16.414;2023-10-09T06:16:30;11.90;99.90
39103;DHT22;24847;48.218;16.414;2023-10-09T06:21:43;12.10;99.90
39103;DHT22;24847;48.218;16.414;2023-10-09T06:27:31;12.20;99.90
39103;DHT22;24847;48.218;16.414;2023-10-09T06:32:57;12.50;99.90
39103;DHT22;24847;48.218;16.414;2023-10-09T06:38:10;12.30;99.90
39103;DHT22;24847;48.218;16.414;2023-10-09T06:43:36;12.30;99.90
39103;DHT22;24847;48.218;16.414;2023-10-09T06:48:43;12.30;99.90
39103;DHT22;24847;48.218;16.414;2023-10-09T06:54:03;12.50;99.90
39103;DHT22;24847;48.218;16.414;2023-10-09T06:59:14;12.60;99.90
39103;DHT22;24847;48.218;16.414;2023-10-09T07:04:22;12.80;99.90
39103;DHT22;24847;48.218;16.414;2023-10-09T07:09:49;12.70;99.90
39103;DHT22;24847;48.218;16.414;2023-10-09T07:15:05;12.70;99.90
39103;DHT22;24847;48.218;16.414;2023-10-09T07:20:41;12.90;99.90
39103;DHT22;24847;48.218;16.414;2023-10-09T07:25:47;12.90;99.90
39103;DHT22;24847;48.218;16.414;2023-10-09T07:31:02;13.20;99.90
39103;DHT22;24847;48.218;16.414;2023-10-09T07:36:12;13.40;99.90
39103;DHT22;24847;48.218;16.414;2023-10-09T07:41:16;13.50;99.90
39103;DHT22;24847;48.218;16.414;2023-10-09T07:46:38;13.50;99.90
39103;DHT22;24847;48.218;16.414;2023-10-09T07:51:57;13.70;99.90
39103;DHT22;24847;48.218;16.414;2023-10-09T07:57:03;13.70;99.90
39103;DHT22;24847;48.218;16.414;2023-10-09T08:02:16;13.70;99.90
39103;DHT22;24847;48.218;16.414;2023-10-09T08:07:18;13.50;99.90
39103;DHT22;24847;48.218;16.414;2023-10-09T08:12:27;13.70;99.90
39103;DHT22;24847;48.218;16.414;2023-10-09T08:18:01;13.70;99.90
39103;DHT22;24847;48.218;16.414;2023-10-09T08:23:16;13.90;99.90
39103;DHT22;24847;48.218;16.414;2023-10-09T08:28:31;13.80;99.90
39103;DHT22;24847;48.218;16.414;2023-10-09T08:33:54;14.10;99.90
39103;DHT22;24847;48.218;16.414;2023-10-09T08:38:58;14.20;99.90
39103;DHT22;24847;48.218;16.414;2023-10-09T08:44:19;14.50;99.90
39103;DHT22;24847;48.218;16.414;2023-10-09T08:49:24;14.70;99.90
39103;DHT22;24847;48.218;16.414;2023-10-09T08:54:27;14.90;99.90
39103;DHT22;24847;48.218;16.414;2023-10-09T08:59:40;15.00;99.90
39103;DHT22;24847;48.218;16.414;2023-10-09T09:04:45;16.00;99.90
39103;DHT22;24847;48.218;16.414;2023-10-09T09:09:57;15.50;99.90
39103;DHT22;24847;48.218;16.414;2023-10-09T09:15:13;15.60;99.90
39103;DHT22;24847;48.218;16.414;2023-10-09T09:20:22;15.80;99.90
39103;DHT22;24847;48.218;16.414;2023-10-09T09:25:42;15.50;99.90
39103;DHT22;24847;48.218;16.414;2023-10-09T09:30:52;15.50;99.90
39103;DHT22;24847;48.218;16.414;2023-10-09T09:35:57;15.70;99.90
39103;DHT22;24847;48.218;16.414;2023-10-09T09:41:00;15.60;99.90
39103;DHT22;24847;48.218;16.414;2023-10-09T09:46:11;15.50;99.90
39103;DHT22;24847;48.218;16.414;2023-10-09T09:51:16;15.70;99.90
39103;DHT22;24847;48.218;16.414;2023-10-09T09:56:25;16.10;99.90
39103;DHT22;24847;48.218;16.414;2023-10-09T10:01:34;16.60;99.90
39103;DHT22;24847;48.218;16.414;2023-10-09T10:06:44;16.60;99.90
39103;DHT22;24847;48.218;16.414;2023-10-09T10:11:48;16.40;99.90
39103;DHT22;24847;48.218;16.414;2023-10-09T10:17:04;16.60;99.90
39103;DHT22;24847;48.218;16.414;2023-10-09T10:22:29;16.50;99.90
39103;DHT22;24847;48.218;16.414;2023-10-09T10:27:33;16.60;99.90
39103;DHT22;24847;48.218;16.414;2023-10-09T10:32:57;16.40;99.90
39103;DHT22;24847;48.218;16.414;2023-10-09T10:38:27;16.60;99.90
39103;DHT22;24847;48.218;16.414;2023-10-09T10:43:34;16.70;99.90
39103;DHT22;24847;48.218;16.414;2023-10-09T10:48:52;16.60;99.90
39103;DHT22;24847;48.218;16.414;2023-10-09T10:54:01;16.40;99.90
39103;DHT22;24847;48.218;16.414;2023-10-09T10:59:21;16.30;99.90
39103;DHT22;24847;48.218;16.414;2023-10-09T11:04:30;16.20;99.90
39103;DHT22;24847;48.218;16.414;2023-10-09T11:09:46;16.10;99.90
39103;DHT22;24847;48.218;16.414;2023-10-09T11:15:10;16.10;99.90
39103;DHT22;24847;48.218;16.414;2023-10-09T11:20:38;16.10;99.90
39103;DHT22;24847;48.218;16.414;2023-10-09T11:25:54;16.00;99.90
39103;DHT22;24847;48.218;16.414;2023-10-09T11:31:16;16.00;99.90
39103;DHT22;24847;48.218;16.414;2023-10-09T11:36:21;16.00;99.90
39103;DHT22;24847;48.218;16.414;2023-10-09T11:41:39;16.00;99.90
39103;DHT22;24847;48.218;16.414;2023-10-09T11:46:57;16.00;99.90
39103;DHT22;24847;48.218;16.414;2023-10-09T11:52:08;16.00;99.90
39103;DHT22;24847;48.218;16.414;2023-10-09T11:57:28;16.10;99.90
39103;DHT22;24847;48.218;16.414;2023-10-09T12:02:34;16.00;99.90
39103;DHT22;24847;48.218;16.414;2023-10-09T12:07:46;15.90;99.90
39103;DHT22;24847;48.218;16.414;2023-10-09T12:12:50;15.90;99.90
39103;DHT22;24847;48.218;16.414;2023-10-09T12:17:52;15.80;99.90
39103;DHT22;24847;48.218;16.414;2023-10-09T12:23:02;16.00;99.90
39103;DHT22;24847;48.218;16.414;2023-10-09T12:28:09;15.90;99.90
39103;DHT22;24847;48.218;16.414;2023-10-09T12:33:13;15.90;99.90
39103;DHT22;24847;48.218;16.414;2023-10-09T12:38:17;15.80;99.90
39103;DHT22;24847;48.218;16.414;2023-10-09T12:43:23;15.80;99.90
39103;DHT22;24847;48.218;16.414;2023-10-09T12:48:28;15.70;99.90
39103;DHT22;24847;48.218;16.414;2023-10-09T12:53:34;15.40;99.90
39103;DHT22;24847;48.218;16.414;2023-10-09T12:58:44;15.30;99.90
39103;DHT22;24847;48.218;16.414;2023-10-09T13:03:53;15.10;99.90
39103;DHT22;24847;48.218;16.414;2023-10-09T13:08:58;15.10;99.90
39103;DHT22;24847;48.218;16.414;2023-10-09T13:14:05;15.20;99.90
39103;DHT22;24847;48.218;16.414;2023-10-09T13:19:17;15.20;99.90
39103;DHT22;24847;48.218;16.414;2023-10-09T13:24:21;15.20;99.90
39103;DHT22;24847;48.218;16.414;2023-10-09T13:29:31;15.20;99.90
39103;DHT22;24847;48.218;16.414;2023-10-09T13:34:37;15.20;99.90
39103;DHT22;24847;48.218;16.414;2023-10-09T13:39:46;15.20;99.90
39103;DHT22;24847;48.218;16.414;2023-10-09T13:44:54;15.30;99.90
39103;DHT22;24847;48.218;16.414;2023-10-09T13:49:56;15.30;99.90
39103;DHT22;24847;48.218;16.414;2023-10-09T13:55:05;15.30;99.90
39103;DHT22;24847;48.218;16.414;2023-10-09T14:00:16;15.20;99.90
39103;DHT22;24847;48.218;16.414;2023-10-09T14:05:33;15.30;99.90
39103;DHT22;24847;48.218;16.414;2023-10-09T14:10:38;15.30;99.90
39103;DHT22;24847;48.218;16.414;2023-10-09T14:15:40;15.40;99.90
39103;DHT22;24847;48.218;16.414;2023-10-09T14:20:43;15.40;99.90
39103;DHT22;24847;48.218;16.414;2023-10-09T14:25:49;15.40;99.90
39103;DHT22;24847;48.218;16.414;2023-10-09T14:30:54;15.30;99.90
39103;DHT22;24847;48.218;16.414;2023-10-09T14:36:00;15.50;99.90
39103;DHT22;24847;48.218;16.414;2023-10-09T14:41:06;15.40;99.90
39103;DHT22;24847;48.218;16.414;2023-10-09T14:46:13;15.50;99.90
39103;DHT22;24847;48.218;16.414;2023-10-09T14:51:16;15.40;99.90
39103;DHT22;24847;48.218;16.414;2023-10-09T14:56:19;15.50;99.90
39103;DHT22;24847;48.218;16.414;2023-10-09T15:01:31;15.50;99.90
39103;DHT22;24847;48.218;16.414;2023-10-09T15:06:33;15.50;99.90
39103;DHT22;24847;48.218;16.414;2023-10-09T15:11:40;15.40;99.90
39103;DHT22;24847;48.218;16.414;2023-10-09T15:16:45;15.40;99.90
39103;DHT22;24847;48.218;16.414;2023-10-09T15:21:47;15.40;99.90
39103;DHT22;24847;48.218;16.414;2023-10-09T15:26:54;15.40;99.90
39103;DHT22;24847;48.218;16.414;2023-10-09T15:32:01;15.30;99.90
39103;DHT22;24847;48.218;16.414;2023-10-09T15:37:08;15.20;99.90
39103;DHT22;24847;48.218;16.414;2023-10-09T15:42:12;15.20;99.90
39103;DHT22;24847;48.218;16.414;2023-10-09T15:47:15;15.30;99.90
39103;DHT22;24847;48.218;16.414;2023-10-09T15:52:18;15.30;99.90
39103;DHT22;24847;48.218;16.414;2023-10-09T15:57:22;15.20;99.90
39103;DHT22;24847;48.218;16.414;2023-10-09T16:02:24;15.20;99.90
39103;DHT22;24847;48.218;16.414;2023-10-09T16:07:27;15.30;99.90
39103;DHT22;24847;48.218;16.414;2023-10-09T16:12:32;15.20;99.90
39103;DHT22;24847;48.218;16.414;2023-10-09T16:17:40;15.20;99.90
39103;DHT22;24847;48.218;16.414;2023-10-09T16:22:44;15.30;99.90
39103;DHT22;24847;48.218;16.414;2023-10-09T16:27:51;15.30;99.90
39103;DHT22;24847;48.218;16.414;2023-10-09T16:32:57;15.30;99.90
39103;DHT22;24847;48.218;16.414;2023-10-09T16:38:01;15.40;99.90
39103;DHT22;24847;48.218;16.414;2023-10-09T16:43:07;15.50;99.90
39103;DHT22;24847;48.218;16.414;2023-10-09T16:48:14;15.50;99.90
39103;DHT22;24847;48.218;16.414;2023-10-09T16:53:16;15.40;99.90
39103;DHT22;24847;48.218;16.414;2023-10-09T16:58:23;15.20;99.90
39103;DHT22;24847;48.218;16.414;2023-10-09T17:03:30;15.30;99.90
39103;DHT22;24847;48.218;16.414;2023-10-09T17:08:37;15.40;99.90
39103;DHT22;24847;48.218;16.414;2023-10-09T17:13:45;15.30;99.90
39103;DHT22;24847;48.218;16.414;2023-10-09T17:18:53;15.20;99.90
39103;DHT22;24847;48.218;16.414;2023-10-09T17:23:57;15.30;99.90
39103;DHT22;24847;48.218;16.414;2023-10-09T17:29:03;15.30;99.90
39103;DHT22;24847;48.218;16.414;2023-10-09T17:34:08;15.30;99.90
39103;DHT22;24847;48.218;16.414;2023-10-09T17:39:18;15.00;99.90
39103;DHT22;24847;48.218;16.414;2023-10-09T17:44:29;15.20;99.90
39103;DHT22;24847;48.218;16.414;2023-10-09T17:49:36;15.30;99.90
39103;DHT22;24847;48.218;16.414;2023-10-09T17:54:41;15.30;99.90
39103;DHT22;24847;48.218;16.414;2023-10-09T17:59:53;15.30;99.90
39103;DHT22;24847;48.218;16.414;2023-10-09T18:04:57;15.40;99.90
39103;DHT22;24847;48.218;16.414;2023-10-09T18:10:02;15.40;99.90
39103;DHT22;24847;48.218;16.414;2023-10-09T18:15:14;15.30;99.90
39103;DHT22;24847;48.218;16.414;2023-10-09T18:20:25;15.40;99.90
39103;DHT22;24847;48.218;16.414;2023-10-09T18:25:31;15.40;99.90
39103;DHT22;24847;48.218;16.414;2023-10-09T18:30:38;15.40;99.90
39103;DHT22;24847;48.218;16.414;2023-10-09T18:35:44;15.30;99.90
39103;DHT22;24847;48.218;16.414;2023-10-09T18:40:48;15.20;99.90
39103;DHT22;24847;48.218;16.414;2023-10-09T18:46:02;15.30;99.90
39103;DHT22;24847;48.218;16.414;2023-10-09T18:51:11;15.40;99.90
39103;DHT22;24847;48.218;16.414;2023-10-09T18:56:18;15.20;99.90
39103;DHT22;24847;48.218;16.414;2023-10-09T19:01:26;15.30;99.90
39103;DHT22;24847;48.218;16.414;2023-10-09T19:06:30;15.30;99.90
39103;DHT22;24847;48.218;16.414;2023-10-09T19:11:37;15.20;99.90
39103;DHT22;24847;48.218;16.414;2023-10-09T19:16:43;15.30;99.90
39103;DHT22;24847;48.218;16.414;2023-10-09T19:21:50;15.30;99.90
39103;DHT22;24847;48.218;16.414;2023-10-09T19:26:59;15.40;99.90
39103;DHT22;24847;48.218;16.414;2023-10-09T19:32:14;15.30;99.90
39103;DHT22;24847;48.218;16.414;2023-10-09T19:37:21;15.20;99.90
39103;DHT22;24847;48.218;16.414;2023-10-09T19:42:28;15.20;99.90
39103;DHT22;24847;48.218;16.414;2023-10-09T19:47:40;15.30;99.90
39103;DHT22;24847;48.218;16.414;2023-10-09T19:52:43;15.40;99.90
39103;DHT22;24847;48.218;16.414;2023-10-09T19:57:52;15.20;99.90
39103;DHT22;24847;48.218;16.414;2023-10-09T20:03:00;15.20;99.90
39103;DHT22;24847;48.218;16.414;2023-10-09T20:08:03;15.10;99.90
39103;DHT22;24847;48.218;16.414;2023-10-09T20:13:10;15.10;99.90
39103;DHT22;24847;48.218;16.414;2023-10-09T20:18:21;15.10;99.90
39103;DHT22;24847;48.218;16.414;2023-10-09T20:23:24;14.90;99.90
39103;DHT22;24847;48.218;16.414;2023-10-09T20:28:28;14.90;99.90
39103;DHT22;24847;48.218;16.414;2023-10-09T20:33:33;14.80;99.90
39103;DHT22;24847;48.218;16.414;2023-10-09T20:38:36;14.80;99.90
39103;DHT22;24847;48.218;16.414;2023-10-09T20:43:40;14.90;99.90
39103;DHT22;24847;48.218;16.414;2023-10-09T20:48:46;14.80;99.90
39103;DHT22;24847;48.218;16.414;2023-10-09T20:53:49;14.90;99.90
39103;DHT22;24847;48.218;16.414;2023-10-09T20:58:54;14.80;99.90
39103;DHT22;24847;48.218;16.414;2023-10-09T21:04:04;14.90;99.90
39103;DHT22;24847;48.218;16.414;2023-10-09T21:09:15;14.90;99.90
39103;DHT22;24847;48.218;16.414;2023-10-09T21:14:17;14.90;99.90
39103;DHT22;24847;48.218;16.414;2023-10-09T21:19:22;15.00;99.90
39103;DHT22;24847;48.218;16.414;2023-10-09T21:24:24;15.00;99.90
39103;DHT22;24847;48.218;16.414;2023-10-09T21:29:29;15.00;99.90
39103;DHT22;24847;48.218;16.414;2023-10-09T21:34:37;14.90;99.90
39103;DHT22;24847;48.218;16.414;2023-10-09T21:39:42;14.90;99.90
39103;DHT22;24847;48.218;16.414;2023-10-09T21:44:45;14.90;99.90
39103;DHT22;24847;48.218;16.414;2023-10-09T21:49:51;14.90;99.90
39103;DHT22;24847;48.218;16.414;2023-10-09T21:54:53;14.90;99.90
39103;DHT22;24847;48.218;16.414;2023-10-09T21:59:56;15.00;99.90
39103;DHT22;24847;48.218;16.414;2023-10-09T22:05:01;15.00;99.90
39103;DHT22;24847;48.218;16.414;2023-10-09T22:10:09;14.90;99.90
39103;DHT22;24847;48.218;16.414;2023-10-09T22:15:18;14.90;99.90
39103;DHT22;24847;48.218;16.414;2023-10-09T22:20:28;15.00;99.90
39103;DHT22;24847;48.218;16.414;2023-10-09T22:25:33;15.00;99.90
39103;DHT22;24847;48.218;16.414;2023-10-09T22:30:40;14.90;99.90
39103;DHT22;24847;48.218;16.414;2023-10-09T22:35:47;14.90;99.90
39103;DHT22;24847;48.218;16.414;2023-10-09T22:40:50;15.00;99.90
39103;DHT22;24847;48.218;16.414;2023-10-09T22:45:55;15.00;99.90
39103;DHT22;24847;48.218;16.414;2023-10-09T22:51:03;15.00;99.90
39103;DHT22;24847;48.218;16.414;2023-10-09T22:56:11;15.10;99.90
39103;DHT22;24847;48.218;16.414;2023-10-09T23:01:20;15.10;99.90
39103;DHT22;24847;48.218;16.414;2023-10-09T23:06:28;15.20;99.90
39103;DHT22;24847;48.218;16.414;2023-10-09T23:11:34;15.10;99.90
39103;DHT22;24847;48.218;16.414;2023-10-09T23:16:39;15.10;99.90
39103;DHT22;24847;48.218;16.414;2023-10-09T23:21:55;15.10;99.90
39103;DHT22;24847;48.218;16.414;2023-10-09T23:27:14;15.10;99.90
39103;DHT22;24847;48.218;16.414;2023-10-09T23:32:36;15.10;99.90
39103;DHT22;24847;48.218;16.414;2023-10-09T23:37:52;15.00;99.90
39103;DHT22;24847;48.218;16.414;2023-10-09T23:43:17;15.10;99.90
39103;DHT22;24847;48.218;16.414;2023-10-09T23:48:24;15.10;99.90
39103;DHT22;24847;48.218;16.414;2023-10-09T23:53:33;15.00;99.90
39103;DHT22;24847;48.218;16.414;2023-10-09T23:58:40;15.00;99.90
